sensor_id;sensor_type;location;lat;lon;timestamp;pressure;altitude;pressure_sealevel;temperature;humidity
59103;BME280;43999;51.660;5.616;2023-04-03T00:02:02;102755.13;;;2.66;100.00
59103;BME280;43999;51.660;5.616;2023-04-03T00:04:44;102758.56;;;2.64;100.00
59103;BME280;43999;51.660;5.616;2023-04-03T00:07:19;102769.75;;;2.61;100.00
59103;BME280;43999;51.660;5.616;2023-04-03T00:09:47;102762.84;;;2.59;100.00
59103;BME280;43999;51.660;5.616;2023-04-03T00:12:25;102766.25;;;2.56;100.00
59103;BME280;43999;51.660;5.616;2023-04-03T00:15:02;102768.78;;;2.51;100.00
59103;BME280;43999;51.660;5.616;2023-04-03T00:17:31;102773.09;;;2.49;100.00
59103;BME280;43999;51.660;5.616;2023-04-03T00:20:04;102770.47;;;2.45;100.00
59103;BME280;43999;51.660;5.616;2023-04-03T00:22:35;102775.59;;;2.42;100.00
59103;BME280;43999;51.660;5.616;2023-04-03T00:25:14;102773.84;;;2.39;100.00
59103;BME280;43999;51.660;5.616;2023-04-03T00:27:44;102783.31;;;2.37;100.00
59103;BME280;43999;51.660;5.616;2023-04-03T00:30:19;102785.00;;;2.35;100.00
59103;BME280;43999;51.660;5.616;2023-04-03T00:32:52;102781.53;;;2.33;100.00
59103;BME280;43999;51.660;5.616;2023-04-03T00:35:24;102780.63;;;2.29;100.00
59103;BME280;43999;51.660;5.616;2023-04-03T00:37:54;102783.19;;;2.28;100.00
59103;BME280;43999;51.660;5.616;2023-04-03T00:40:25;102783.16;;;2.25;100.00
59103;BME280;43999;51.660;5.616;2023-04-03T00:42:58;102774.47;;;2.20;100.00
59103;BME280;43999;51.660;5.616;2023-04-03T00:45:38;102787.38;;;2.20;100.00
59103;BME280;43999;51.660;5.616;2023-04-03T00:48:20;102778.75;;;2.16;100.00
59103;BME280;43999;51.660;5.616;2023-04-03T00:50:52;102795.13;;;2.18;100.00
59103;BME280;43999;51.660;5.616;2023-04-03T00:53:30;102798.56;;;2.15;100.00
59103;BME280;43999;51.660;5.616;2023-04-03T00:56:04;102794.19;;;2.11;100.00
59103;BME280;43999;51.660;5.616;2023-04-03T00:59:08;102789.84;;;2.09;100.00
59103;BME280;43999;51.660;5.616;2023-04-03T01:01:49;102788.94;;;2.05;100.00
59103;BME280;43999;51.660;5.616;2023-04-03T01:09:46;102800.06;;;2.00;100.00
59103;BME280;43999;51.660;5.616;2023-04-03T01:15:03;102806.06;;;1.95;100.00
59103;BME280;43999;51.660;5.616;2023-04-03T01:17:53;102801.69;;;1.91;100.00
59103;BME280;43999;51.660;5.616;2023-04-03T01:20:40;102802.56;;;1.93;100.00
59103;BME280;43999;51.660;5.616;2023-04-03T01:23:53;102799.06;;;1.88;100.00
59103;BME280;43999;51.660;5.616;2023-04-03T01:26:40;102802.47;;;1.86;100.00
59103;BME280;43999;51.660;5.616;2023-04-03T01:29:12;102797.28;;;1.86;100.00
59103;BME280;43999;51.660;5.616;2023-04-03T01:32:01;102805.97;;;1.88;100.00
59103;BME280;43999;51.660;5.616;2023-04-03T01:34:34;102799.03;;;1.85;100.00
59103;BME280;43999;51.660;5.616;2023-04-03T01:37:09;102793.78;;;1.81;100.00
59103;BME280;43999;51.660;5.616;2023-04-03T01:39:39;102790.34;;;1.80;100.00
59103;BME280;43999;51.660;5.616;2023-04-03T01:42:08;102798.94;;;1.79;100.00
59103;BME280;43999;51.660;5.616;2023-04-03T01:44:39;102796.28;;;1.74;100.00
59103;BME280;43999;51.660;5.616;2023-04-03T01:47:08;102798.03;;;1.75;100.00
59103;BME280;43999;51.660;5.616;2023-04-03T01:49:42;102800.63;;;1.77;100.00
59103;BME280;43999;51.660;5.616;2023-04-03T01:52:20;102802.34;;;1.78;100.00
59103;BME280;43999;51.660;5.616;2023-04-03T01:54:47;102794.56;;;1.75;100.00
59103;BME280;43999;51.660;5.616;2023-04-03T01:57:23;102803.22;;;1.77;100.00
59103;BME280;43999;51.660;5.616;2023-04-03T02:00:05;102814.41;;;1.77;100.00
59103;BME280;43999;51.660;5.616;2023-04-03T02:02:39;102809.22;;;1.76;100.00
59103;BME280;43999;51.660;5.616;2023-04-03T02:05:07;102804.06;;;1.76;100.00
59103;BME280;43999;51.660;5.616;2023-04-03T02:07:44;102807.47;;;1.75;100.00
59103;BME280;43999;51.660;5.616;2023-04-03T02:10:12;102797.94;;;1.69;100.00
59103;BME280;43999;51.660;5.616;2023-04-03T02:12:41;102808.31;;;1.72;100.00
59103;BME280;43999;51.660;5.616;2023-04-03T02:15:12;102819.53;;;1.73;100.00
59103;BME280;43999;51.660;5.616;2023-04-03T02:17:40;102814.31;;;1.70;100.00
59103;BME280;43999;51.660;5.616;2023-04-03T02:20:11;102809.91;;;1.64;100.00
59103;BME280;43999;51.660;5.616;2023-04-03T02:22:43;102814.25;;;1.65;100.00
59103;BME280;43999;51.660;5.616;2023-04-03T02:25:12;102807.28;;;1.63;100.00
59103;BME280;43999;51.660;5.616;2023-04-03T02:27:40;102814.13;;;1.57;100.00
59103;BME280;43999;51.660;5.616;2023-04-03T02:30:13;102814.16;;;1.60;100.00
59103;BME280;43999;51.660;5.616;2023-04-03T02:32:57;102814.97;;;1.58;100.00
59103;BME280;43999;51.660;5.616;2023-04-03T02:35:56;102824.47;;;1.57;100.00
59103;BME280;43999;51.660;5.616;2023-04-03T02:38:25;102832.22;;;1.57;100.00
59103;BME280;43999;51.660;5.616;2023-04-03T02:41:08;102822.69;;;1.55;100.00
59103;BME280;43999;51.660;5.616;2023-04-03T02:43:42;102828.72;;;1.54;100.00
59103;BME280;43999;51.660;5.616;2023-04-03T02:46:13;102821.78;;;1.51;100.00
59103;BME280;43999;51.660;5.616;2023-04-03T02:48:42;102817.41;;;1.47;100.00
59103;BME280;43999;51.660;5.616;2023-04-03T02:51:18;102826.91;;;1.48;100.00
59103;BME280;43999;51.660;5.616;2023-04-03T02:53:50;102823.41;;;1.45;100.00
59103;BME280;43999;51.660;5.616;2023-04-03T02:56:24;102825.94;;;1.41;100.00
59103;BME280;43999;51.660;5.616;2023-04-03T02:58:54;102832.81;;;1.42;100.00
59103;BME280;43999;51.660;5.616;2023-04-03T03:01:24;102818.09;;;1.35;100.00
59103;BME280;43999;51.660;5.616;2023-04-03T03:03:52;102832.75;;;1.38;100.00
59103;BME280;43999;51.660;5.616;2023-04-03T03:06:21;102831.03;;;1.37;100.00
59103;BME280;43999;51.660;5.616;2023-04-03T03:08:52;102820.56;;;1.29;100.00
59103;BME280;43999;51.660;5.616;2023-04-03T03:11:28;102831.84;;;1.34;100.00
59103;BME280;43999;51.660;5.616;2023-04-03T03:14:07;102830.09;;;1.32;100.00
59103;BME280;43999;51.660;5.616;2023-04-03T03:16:36;102830.06;;;1.30;100.00
59103;BME280;43999;51.660;5.616;2023-04-03T03:19:06;102823.91;;;1.23;100.00
59103;BME280;43999;51.660;5.616;2023-04-03T03:21:34;102814.41;;;1.21;100.00
59103;BME280;43999;51.660;5.616;2023-04-03T03:24:04;102830.81;;;1.24;100.00
59103;BME280;43999;51.660;5.616;2023-04-03T03:26:58;102836.78;;;1.22;100.00
59103;BME280;43999;51.660;5.616;2023-04-03T03:29:36;102840.25;;;1.21;100.00
59103;BME280;43999;51.660;5.616;2023-04-03T03:32:05;102833.28;;;1.17;100.00
59103;BME280;43999;51.660;5.616;2023-04-03T03:34:35;102835.84;;;1.17;100.00
59103;BME280;43999;51.660;5.616;2023-04-03T03:37:03;102840.97;;;1.14;100.00
59103;BME280;43999;51.660;5.616;2023-04-03T03:39:35;102848.69;;;1.12;100.00
59103;BME280;43999;51.660;5.616;2023-04-03T03:42:03;102842.63;;;1.10;100.00
59103;BME280;43999;51.660;5.616;2023-04-03T03:44:31;102853.75;;;1.07;100.00
59103;BME280;43999;51.660;5.616;2023-04-03T03:46:59;102847.66;;;1.02;100.00
59103;BME280;43999;51.660;5.616;2023-04-03T03:49:29;102845.03;;;0.99;100.00
59103;BME280;43999;51.660;5.616;2023-04-03T03:52:01;102849.34;;;1.02;100.00
59103;BME280;43999;51.660;5.616;2023-04-03T03:54:30;102846.75;;;1.00;100.00
59103;BME280;43999;51.660;5.616;2023-04-03T03:56:58;102844.09;;;0.97;100.00
59103;BME280;43999;51.660;5.616;2023-04-03T03:59:38;102851.84;;;0.97;100.00
59103;BME280;43999;51.660;5.616;2023-04-03T04:02:08;102858.69;;;0.94;100.00
59103;BME280;43999;51.660;5.616;2023-04-03T04:04:42;102863.91;;;0.97;100.00
59103;BME280;43999;51.660;5.616;2023-04-03T04:07:18;102856.97;;;0.94;100.00
59103;BME280;43999;51.660;5.616;2023-04-03T04:09:50;102862.97;;;0.93;100.00
59103;BME280;43999;51.660;5.616;2023-04-03T04:12:21;102862.09;;;0.93;100.00
59103;BME280;43999;51.660;5.616;2023-04-03T04:14:51;102858.56;;;0.87;100.00
59103;BME280;43999;51.660;5.616;2023-04-03T04:17:30;102868.09;;;0.90;100.00
59103;BME280;43999;51.660;5.616;2023-04-03T04:20:03;102870.63;;;0.88;100.00
59103;BME280;43999;51.660;5.616;2023-04-03T04:22:35;102864.56;;;0.86;100.00
59103;BME280;43999;51.660;5.616;2023-04-03T04:25:13;102858.41;;;0.80;100.00
59103;BME280;43999;51.660;5.616;2023-04-03T04:27:52;102862.75;;;0.81;100.00
59103;BME280;43999;51.660;5.616;2023-04-03T04:30:30;102870.44;;;0.78;100.00
59103;BME280;43999;51.660;5.616;2023-04-03T04:32:59;102854.84;;;0.73;100.00
59103;BME280;43999;51.660;5.616;2023-04-03T04:35:42;102865.25;;;0.76;100.00
59103;BME280;43999;51.660;5.616;2023-04-03T04:42:01;102867.78;;;0.75;100.00
59103;BME280;43999;51.660;5.616;2023-04-03T04:44:49;102872.81;;;0.68;100.00
59103;BME280;43999;51.660;5.616;2023-04-03T04:48:04;102877.94;;;0.65;100.00
59103;BME280;43999;51.660;5.616;2023-04-03T04:51:13;102878.72;;;0.63;100.00
59103;BME280;43999;51.660;5.616;2023-04-03T04:54:11;102886.41;;;0.60;100.00
59103;BME280;43999;51.660;5.616;2023-04-03T04:56:56;102882.06;;;0.59;100.00
59103;BME280;43999;51.660;5.616;2023-04-03T04:59:58;102883.78;;;0.58;100.00
59103;BME280;43999;51.660;5.616;2023-04-03T05:02:40;102885.47;;;0.56;100.00
59103;BME280;43999;51.660;5.616;2023-04-03T05:05:32;102888.06;;;0.56;100.00
59103;BME280;43999;51.660;5.616;2023-04-03T05:08:17;102884.63;;;0.57;100.00
59103;BME280;43999;51.660;5.616;2023-04-03T05:10:54;102890.66;;;0.58;100.00
59103;BME280;43999;51.660;5.616;2023-04-03T05:13:59;102891.53;;;0.58;100.00
59103;BME280;43999;51.660;5.616;2023-04-03T05:16:37;102883.78;;;0.58;100.00
59103;BME280;43999;51.660;5.616;2023-04-03T05:19:14;102887.13;;;0.54;100.00
59103;BME280;43999;51.660;5.616;2023-04-03T05:21:49;102883.81;;;0.60;100.00
59103;BME280;43999;51.660;5.616;2023-04-03T05:24:49;102896.72;;;0.60;100.00
59103;BME280;43999;51.660;5.616;2023-04-03T05:27:28;102896.72;;;0.60;100.00
59103;BME280;43999;51.660;5.616;2023-04-03T05:30:16;102889.78;;;0.57;100.00
59103;BME280;43999;51.660;5.616;2023-04-03T05:32:49;102883.00;;;0.61;100.00
59103;BME280;43999;51.660;5.616;2023-04-03T05:35:43;102892.84;;;0.82;100.00
59103;BME280;43999;51.660;5.616;2023-04-03T05:38:33;102900.97;;;1.00;100.00
59103;BME280;43999;51.660;5.616;2023-04-03T05:41:05;102902.06;;;1.12;100.00
59103;BME280;43999;51.660;5.616;2023-04-03T05:43:34;102905.72;;;1.24;100.00
59103;BME280;43999;51.660;5.616;2023-04-03T05:46:17;102903.38;;;1.38;100.00
59103;BME280;43999;51.660;5.616;2023-04-03T05:48:55;102905.25;;;1.49;100.00
59103;BME280;43999;51.660;5.616;2023-04-03T05:51:39;102913.19;;;1.59;100.00
59103;BME280;43999;51.660;5.616;2023-04-03T05:54:29;102917.75;;;1.73;100.00
59103;BME280;43999;51.660;5.616;2023-04-03T05:57:06;102919.75;;;1.91;100.00
59103;BME280;43999;51.660;5.616;2023-04-03T06:00:07;102937.13;;;2.01;100.00
59103;BME280;43999;51.660;5.616;2023-04-03T06:03:17;102926.97;;;2.13;100.00
59103;BME280;43999;51.660;5.616;2023-04-03T06:05:53;102930.59;;;2.23;100.00
59103;BME280;43999;51.660;5.616;2023-04-03T06:08:45;102922.16;;;2.38;100.00
59103;BME280;43999;51.660;5.616;2023-04-03T06:11:19;102933.59;;;2.53;100.00
59103;BME280;43999;51.660;5.616;2023-04-03T06:14:13;102932.00;;;2.65;100.00
59103;BME280;43999;51.660;5.616;2023-04-03T06:17:15;102932.22;;;2.81;100.00
59103;BME280;43999;51.660;5.616;2023-04-03T06:19:56;102934.06;;;2.93;100.00
59103;BME280;43999;51.660;5.616;2023-04-03T06:22:32;102941.09;;;3.03;100.00
59103;BME280;43999;51.660;5.616;2023-04-03T06:25:05;102928.25;;;3.12;100.00
59103;BME280;43999;51.660;5.616;2023-04-03T06:27:50;102939.63;;;3.28;100.00
59103;BME280;43999;51.660;5.616;2023-04-03T06:30:40;102944.88;;;3.34;100.00
59103;BME280;43999;51.660;5.616;2023-04-03T06:33:15;102946.66;;;3.40;100.00
59103;BME280;43999;51.660;5.616;2023-04-03T06:36:13;102940.56;;;3.33;100.00
59103;BME280;43999;51.660;5.616;2023-04-03T06:39:21;102946.53;;;3.26;100.00
59103;BME280;43999;51.660;5.616;2023-04-03T06:41:54;102941.31;;;3.23;100.00
59103;BME280;43999;51.660;5.616;2023-04-03T06:45:20;102951.69;;;3.23;100.00
59103;BME280;43999;51.660;5.616;2023-04-03T06:48:57;102957.84;;;3.37;100.00
59103;BME280;43999;51.660;5.616;2023-04-03T06:52:08;102951.09;;;3.49;100.00
59103;BME280;43999;51.660;5.616;2023-04-03T06:55:42;102942.47;;;3.54;100.00
59103;BME280;43999;51.660;5.616;2023-04-03T06:58:30;102946.09;;;3.69;100.00
59103;BME280;43999;51.660;5.616;2023-04-03T07:01:50;102960.16;;;3.99;100.00
59103;BME280;43999;51.660;5.616;2023-04-03T07:04:26;102957.66;;;4.14;100.00
59103;BME280;43999;51.660;5.616;2023-04-03T07:06:57;102955.03;;;4.08;100.00
59103;BME280;43999;51.660;5.616;2023-04-03T07:09:33;102961.03;;;4.02;100.00
59103;BME280;43999;51.660;5.616;2023-04-03T07:12:24;102965.31;;;3.97;100.00
59103;BME280;43999;51.660;5.616;2023-04-03T07:15:15;102968.81;;;4.04;100.00
59103;BME280;43999;51.660;5.616;2023-04-03T07:17:55;102966.31;;;4.15;100.00
59103;BME280;43999;51.660;5.616;2023-04-03T07:20:39;102971.59;;;4.27;100.00
59103;BME280;43999;51.660;5.616;2023-04-03T07:23:10;102965.63;;;4.39;100.00
59103;BME280;43999;51.660;5.616;2023-04-03T07:25:49;102973.41;;;4.40;100.00
59103;BME280;43999;51.660;5.616;2023-04-03T07:28:43;102974.28;;;4.41;100.00
59103;BME280;43999;51.660;5.616;2023-04-03T07:31:19;102977.72;;;4.40;100.00
59103;BME280;43999;51.660;5.616;2023-04-03T07:33:50;102983.81;;;4.42;100.00
59103;BME280;43999;51.660;5.616;2023-04-03T07:36:40;102983.81;;;4.43;100.00
59103;BME280;43999;51.660;5.616;2023-04-03T07:39:27;102994.28;;;4.57;100.00
59103;BME280;43999;51.660;5.616;2023-04-03T07:42:05;102983.06;;;4.64;100.00
59103;BME280;43999;51.660;5.616;2023-04-03T07:44:45;102990.97;;;4.88;99.15
59103;BME280;43999;51.660;5.616;2023-04-03T07:48:02;102994.50;;;4.97;99.12
59103;BME280;43999;51.660;5.616;2023-04-03T07:50:52;102989.34;;;5.11;98.42
59103;BME280;43999;51.660;5.616;2023-04-03T07:53:33;102992.84;;;5.29;95.13
59103;BME280;43999;51.660;5.616;2023-04-03T07:56:19;102995.50;;;5.50;92.67
59103;BME280;43999;51.660;5.616;2023-04-03T07:59:14;102994.66;;;5.79;93.19
59103;BME280;43999;51.660;5.616;2023-04-03T08:01:59;103001.66;;;6.11;88.82
59103;BME280;43999;51.660;5.616;2023-04-03T08:05:01;102999.03;;;6.36;88.05
59103;BME280;43999;51.660;5.616;2023-04-03T08:07:56;102999.81;;;6.73;84.85
59103;BME280;43999;51.660;5.616;2023-04-03T08:11:05;102997.22;;;6.61;76.45
59103;BME280;43999;51.660;5.616;2023-04-03T08:13:56;102996.44;;;6.25;79.10
59103;BME280;43999;51.660;5.616;2023-04-03T08:16:47;102983.41;;;5.82;80.45
59103;BME280;43999;51.660;5.616;2023-04-03T08:19:19;102997.25;;;5.62;81.67
59103;BME280;43999;51.660;5.616;2023-04-03T08:22:00;103000.69;;;5.43;81.63
59103;BME280;43999;51.660;5.616;2023-04-03T08:24:47;102999.78;;;5.25;80.55
59103;BME280;43999;51.660;5.616;2023-04-03T08:27:50;103003.19;;;5.12;79.77
59103;BME280;43999;51.660;5.616;2023-04-03T08:30:28;103000.56;;;5.02;79.63
59103;BME280;43999;51.660;5.616;2023-04-03T08:33:04;102999.69;;;4.97;79.25
59103;BME280;43999;51.660;5.616;2023-04-03T08:35:45;103003.09;;;4.90;75.90
59103;BME280;43999;51.660;5.616;2023-04-03T08:38:14;102997.00;;;4.82;72.99
59103;BME280;43999;51.660;5.616;2023-04-03T08:41:04;103001.28;;;4.77;70.20
59103;BME280;43999;51.660;5.616;2023-04-03T08:44:19;102997.81;;;4.69;72.96
59103;BME280;43999;51.660;5.616;2023-04-03T08:48:15;103006.44;;;4.66;69.89
59103;BME280;43999;51.660;5.616;2023-04-03T08:51:12;102985.63;;;4.61;70.46
59103;BME280;43999;51.660;5.616;2023-04-03T08:58:16;103002.97;;;4.64;75.74
59103;BME280;43999;51.660;5.616;2023-04-03T09:04:17;103003.94;;;4.86;63.64
59103;BME280;43999;51.660;5.616;2023-04-03T09:07:42;103006.56;;;4.89;64.31
59103;BME280;43999;51.660;5.616;2023-04-03T09:10:30;103004.88;;;4.94;61.03
59103;BME280;43999;51.660;5.616;2023-04-03T09:17:36;103008.34;;;4.98;67.70
59103;BME280;43999;51.660;5.616;2023-04-03T09:24:16;103018.78;;;5.12;61.13
59103;BME280;43999;51.660;5.616;2023-04-03T09:27:05;103015.38;;;5.19;62.61
59103;BME280;43999;51.660;5.616;2023-04-03T09:30:01;103011.06;;;5.29;59.44
59103;BME280;43999;51.660;5.616;2023-04-03T09:32:48;103011.91;;;5.31;57.35
59103;BME280;43999;51.660;5.616;2023-04-03T09:35:35;103015.38;;;5.36;51.46
59103;BME280;43999;51.660;5.616;2023-04-03T09:38:33;103016.28;;;5.43;51.57
59103;BME280;43999;51.660;5.616;2023-04-03T09:41:16;102997.19;;;5.41;50.56
59103;BME280;43999;51.660;5.616;2023-04-03T09:44:01;103001.56;;;5.45;51.13
59103;BME280;43999;51.660;5.616;2023-04-03T09:46:34;103001.56;;;5.54;49.86
59103;BME280;43999;51.660;5.616;2023-04-03T09:49:12;102993.78;;;5.62;46.39
59103;BME280;43999;51.660;5.616;2023-04-03T09:51:53;102992.94;;;5.66;46.61
59103;BME280;43999;51.660;5.616;2023-04-03T09:54:37;102984.25;;;5.65;49.06
59103;BME280;43999;51.660;5.616;2023-04-03T09:57:12;102988.59;;;5.71;49.13
59103;BME280;43999;51.660;5.616;2023-04-03T09:59:58;102987.75;;;5.73;49.17
59103;BME280;43999;51.660;5.616;2023-04-03T10:02:38;102985.16;;;5.80;47.07
59103;BME280;43999;51.660;5.616;2023-04-03T10:05:40;102982.53;;;5.87;46.82
59103;BME280;43999;51.660;5.616;2023-04-03T10:08:31;102974.75;;;5.87;47.60
59103;BME280;43999;51.660;5.616;2023-04-03T10:11:12;102966.94;;;5.93;45.60
59103;BME280;43999;51.660;5.616;2023-04-03T10:14:02;102973.88;;;6.04;43.76
59103;BME280;43999;51.660;5.616;2023-04-03T10:23:38;102972.13;;;7.93;38.30
59103;BME280;43999;51.660;5.616;2023-04-03T10:26:43;102968.81;;;8.69;37.31
59103;BME280;43999;51.660;5.616;2023-04-03T10:30:00;102949.59;;;9.37;37.41
59103;BME280;43999;51.660;5.616;2023-04-03T10:36:51;102951.00;;;10.59;32.31
59103;BME280;43999;51.660;5.616;2023-04-03T10:39:53;102934.66;;;10.88;33.32
59103;BME280;43999;51.660;5.616;2023-04-03T10:45:24;102934.22;;;11.46;30.98
59103;BME280;43999;51.660;5.616;2023-04-03T10:52:25;102922.09;;;11.76;30.57
59103;BME280;43999;51.660;5.616;2023-04-03T10:58:38;102925.56;;;12.11;29.90
59103;BME280;43999;51.660;5.616;2023-04-03T11:01:31;102927.03;;;12.23;31.65
59103;BME280;43999;51.660;5.616;2023-04-03T11:04:17;102925.88;;;12.63;28.27
59103;BME280;43999;51.660;5.616;2023-04-03T11:07:12;102914.91;;;12.79;29.47
59103;BME280;43999;51.660;5.616;2023-04-03T11:09:55;102906.59;;;12.93;29.62
59103;BME280;43999;51.660;5.616;2023-04-03T11:12:42;102907.97;;;13.06;30.40
59103;BME280;43999;51.660;5.616;2023-04-03T11:15:21;102910.84;;;13.25;30.51
59103;BME280;43999;51.660;5.616;2023-04-03T11:18:21;102907.81;;;13.39;30.31
59103;BME280;43999;51.660;5.616;2023-04-03T11:21:23;102910.53;;;13.62;29.40
59103;BME280;43999;51.660;5.616;2023-04-03T11:24:31;102911.94;;;13.73;28.67
59103;BME280;43999;51.660;5.616;2023-04-03T11:27:03;102908.75;;;13.63;29.25
59103;BME280;43999;51.660;5.616;2023-04-03T11:29:45;102898.09;;;13.66;28.09
59103;BME280;43999;51.660;5.616;2023-04-03T11:32:45;102881.25;;;13.72;28.68
59103;BME280;43999;51.660;5.616;2023-04-03T11:35:52;102891.41;;;13.57;27.89
59103;BME280;43999;51.660;5.616;2023-04-03T11:38:33;102899.59;;;13.48;26.41
59103;BME280;43999;51.660;5.616;2023-04-03T11:41:06;102903.72;;;13.28;28.85
59103;BME280;43999;51.660;5.616;2023-04-03T11:44:32;102892.63;;;13.19;28.57
59103;BME280;43999;51.660;5.616;2023-04-03T11:47:06;102892.06;;;13.09;28.22
59103;BME280;43999;51.660;5.616;2023-04-03T12:00:55;102884.16;;;12.51;29.38
59103;BME280;43999;51.660;5.616;2023-04-03T12:03:35;102881.13;;;12.35;30.42
59103;BME280;43999;51.660;5.616;2023-04-03T12:10:14;102878.31;;;12.10;32.85
59103;BME280;43999;51.660;5.616;2023-04-03T12:13:00;102886.19;;;12.10;34.14
59103;BME280;43999;51.660;5.616;2023-04-03T12:47:44;102842.09;;;11.55;34.78
59103;BME280;43999;51.660;5.616;2023-04-03T12:50:31;102845.53;;;11.59;34.45
59103;BME280;43999;51.660;5.616;2023-04-03T12:53:06;102829.66;;;11.63;33.48
59103;BME280;43999;51.660;5.616;2023-04-03T12:55:43;102838.34;;;11.65;32.50
59103;BME280;43999;51.660;5.616;2023-04-03T12:58:26;102823.31;;;11.71;32.38
59103;BME280;43999;51.660;5.616;2023-04-03T13:01:21;102822.16;;;11.81;33.85
59103;BME280;43999;51.660;5.616;2023-04-03T13:03:56;102829.00;;;11.87;33.94
59103;BME280;43999;51.660;5.616;2023-04-03T13:06:44;102831.19;;;12.04;34.26
59103;BME280;43999;51.660;5.616;2023-04-03T13:09:36;102826.06;;;12.30;34.08
59103;BME280;43999;51.660;5.616;2023-04-03T13:12:15;102829.00;;;12.49;32.42
59103;BME280;43999;51.660;5.616;2023-04-03T13:15:00;102817.16;;;12.64;34.40
59103;BME280;43999;51.660;5.616;2023-04-03T13:17:42;102811.78;;;12.96;33.06
59103;BME280;43999;51.660;5.616;2023-04-03T13:20:35;102813.84;;;13.13;32.27
59103;BME280;43999;51.660;5.616;2023-04-03T13:23:08;102808.09;;;13.28;31.67
59103;BME280;43999;51.660;5.616;2023-04-03T13:25:44;102809.19;;;13.48;32.61
59103;BME280;43999;51.660;5.616;2023-04-03T13:28:22;102809.19;;;13.48;32.96
59103;BME280;43999;51.660;5.616;2023-04-03T13:31:33;102801.97;;;13.26;33.74
59103;BME280;43999;51.660;5.616;2023-04-03T13:34:16;102802.38;;;13.15;33.17
59103;BME280;43999;51.660;5.616;2023-04-03T13:36:58;102805.25;;;13.07;32.23
59103;BME280;43999;51.660;5.616;2023-04-03T13:39:40;102800.19;;;13.01;32.89
59103;BME280;43999;51.660;5.616;2023-04-03T13:42:25;102795.38;;;13.14;32.86
59103;BME280;43999;51.660;5.616;2023-04-03T13:45:26;102786.41;;;13.20;32.70
59103;BME280;43999;51.660;5.616;2023-04-03T13:48:18;102791.84;;;13.15;32.95
59103;BME280;43999;51.660;5.616;2023-04-03T13:57:01;102782.97;;;12.91;32.70
59103;BME280;43999;51.660;5.616;2023-04-03T13:59:34;102783.09;;;12.60;33.84
59103;BME280;43999;51.660;5.616;2023-04-03T14:07:17;102787.34;;;12.64;32.99
59103;BME280;43999;51.660;5.616;2023-04-03T14:09:54;102780.94;;;12.72;33.03
59103;BME280;43999;51.660;5.616;2023-04-03T14:12:39;102770.31;;;13.02;33.31
59103;BME280;43999;51.660;5.616;2023-04-03T14:15:30;102763.84;;;13.13;31.71
59103;BME280;43999;51.660;5.616;2023-04-03T14:18:00;102766.19;;;12.95;32.79
59103;BME280;43999;51.660;5.616;2023-04-03T14:20:31;102768.38;;;13.09;33.17
59103;BME280;43999;51.660;5.616;2023-04-03T14:22:59;102777.34;;;13.28;33.16
59103;BME280;43999;51.660;5.616;2023-04-03T14:25:29;102770.00;;;13.38;33.06
59103;BME280;43999;51.660;5.616;2023-04-03T14:27:58;102766.19;;;13.47;32.08
59103;BME280;43999;51.660;5.616;2023-04-03T14:30:33;102773.09;;;13.51;32.98
59103;BME280;43999;51.660;5.616;2023-04-03T14:33:02;102782.97;;;13.70;32.01
59103;BME280;43999;51.660;5.616;2023-04-03T14:35:31;102774.34;;;13.90;32.63
59103;BME280;43999;51.660;5.616;2023-04-03T14:38:01;102776.34;;;14.07;31.60
59103;BME280;43999;51.660;5.616;2023-04-03T14:40:33;102777.16;;;14.31;31.96
59103;BME280;43999;51.660;5.616;2023-04-03T14:43:02;102773.06;;;14.46;30.44
59103;BME280;43999;51.660;5.616;2023-04-03T14:45:36;102778.66;;;14.38;30.80
59103;BME280;43999;51.660;5.616;2023-04-03T14:48:06;102763.13;;;14.30;30.83
59103;BME280;43999;51.660;5.616;2023-04-03T14:50:48;102746.41;;;14.31;31.31
59103;BME280;43999;51.660;5.616;2023-04-03T14:53:33;102751.53;;;14.57;31.48
59103;BME280;43999;51.660;5.616;2023-04-03T14:56:26;102750.06;;;14.72;31.68
59103;BME280;43999;51.660;5.616;2023-04-03T14:59:08;102744.66;;;14.97;31.45
59103;BME280;43999;51.660;5.616;2023-04-03T15:01:49;102750.59;;;15.22;31.12
59103;BME280;43999;51.660;5.616;2023-04-03T15:04:20;102741.22;;;15.36;30.11
59103;BME280;43999;51.660;5.616;2023-04-03T15:06:52;102741.50;;;15.30;30.66
59103;BME280;43999;51.660;5.616;2023-04-03T15:09:37;102755.09;;;15.41;30.20
59103;BME280;43999;51.660;5.616;2023-04-03T15:12:08;102750.88;;;15.37;29.83
59103;BME280;43999;51.660;5.616;2023-04-03T15:14:43;102734.09;;;15.38;30.20
59103;BME280;43999;51.660;5.616;2023-04-03T15:17:27;102736.00;;;15.34;29.65
59103;BME280;43999;51.660;5.616;2023-04-03T15:19:55;102730.72;;;15.34;29.72
59103;BME280;43999;51.660;5.616;2023-04-03T15:22:27;102725.44;;;15.34;29.52
59103;BME280;43999;51.660;5.616;2023-04-03T15:25:03;102730.00;;;15.31;30.11
59103;BME280;43999;51.660;5.616;2023-04-03T15:27:34;102724.19;;;15.22;30.69
59103;BME280;43999;51.660;5.616;2023-04-03T15:30:08;102725.72;;;15.28;30.93
59103;BME280;43999;51.660;5.616;2023-04-03T15:32:41;102734.75;;;15.22;30.93
59103;BME280;43999;51.660;5.616;2023-04-03T15:35:15;102729.41;;;15.24;30.86
59103;BME280;43999;51.660;5.616;2023-04-03T15:37:49;102725.34;;;15.17;30.76
59103;BME280;43999;51.660;5.616;2023-04-03T15:40:19;102725.28;;;15.18;30.33
59103;BME280;43999;51.660;5.616;2023-04-03T15:42:51;102749.34;;;15.11;31.18
59103;BME280;43999;51.660;5.616;2023-04-03T15:45:23;102742.59;;;15.03;30.56
59103;BME280;43999;51.660;5.616;2023-04-03T15:47:53;102726.63;;;15.06;31.05
59103;BME280;43999;51.660;5.616;2023-04-03T15:50:22;102733.50;;;15.11;30.67
59103;BME280;43999;51.660;5.616;2023-04-03T15:52:53;102740.28;;;14.96;30.95
59103;BME280;43999;51.660;5.616;2023-04-03T15:55:33;102738.56;;;14.95;30.34
59103;BME280;43999;51.660;5.616;2023-04-03T15:58:04;102737.38;;;14.81;30.35